Time;durP1;ratioP1;P1;durP2;ratioP2;P2;SDS_P1;SDS_P2;PMS_P1;PMS_P2;Temp;Humidity;BMP_temperature;BMP_pressure;BME280_temperature;BME280_humidity;BME280_pressure;Samples;Min_cycle;Max_cycle;Signal;HPM_P1;HPM_P2
2021/01/06 00:01:52;;;;;;;10.73;9.27;;;;;;;;;;5099929;28;20035;-88
2021/01/06 00:04:18;;;;;;;14.43;9.23;;;;;;;;;;5082940;28;20036;-90
2021/01/06 00:06:47;;;;;;;10.32;9.02;;;;;;;;;;5100110;28;20020;-89
2021/01/06 00:09:13;;;;;;;9.98;8.98;;;;;;;;;;5100385;28;20112;-92
2021/01/06 00:12:12;;;;;;;12.02;8.60;;;;;;;;;;5082506;28;20035;-91
2021/01/06 00:14:38;;;;;;;9.60;8.00;;;;;;;;;;5028248;28;20048;-90
2021/01/06 00:17:04;;;;;;;10.13;9.10;;;;;;;;;;5083605;28;20036;-89
2021/01/06 00:19:30;;;;;;;10.25;9.15;;;;;;;;;;5101734;28;20031;-88
2021/01/06 00:21:57;;;;;;;9.85;8.80;;;;;;;;;;5083430;28;20028;-85
2021/01/06 00:24:25;;;;;;;10.27;9.27;;;;;;;;;;5083168;28;20036;-88
2021/01/06 00:27:05;;;;;;;9.77;8.77;;;;;;;;;;5081352;28;20032;-89
2021/01/06 00:29:31;;;;;;;9.02;7.97;;;;;;;;;;5082675;28;20068;-89
2021/01/06 00:32:02;;;;;;;9.65;8.65;;;;;;;;;;5083450;28;20028;-88
2021/01/06 00:34:28;;;;;;;9.13;8.27;;;;;;;;;;5083536;28;20024;-87
2021/01/06 00:37:11;;;;;;;;;;;;;;;;;;;;;
2021/01/06 00:39:42;;;;;;;9.00;8.13;;;;;;;;;;5100893;28;20024;-87
2021/01/06 00:42:08;;;;;;;8.68;7.80;;;;;;;;;;5083929;28;20036;-86
2021/01/06 00:44:34;;;;;;;9.80;7.80;;;;;;;;;;5082811;28;20069;-89
2021/01/06 00:47:11;;;;;;;9.18;8.18;;;;;;;;;;5101586;28;20036;-89
2021/01/06 00:49:39;;;;;;;7.65;6.95;;;;;;;;;;5083166;28;20043;-88
2021/01/06 00:52:05;;;;;;;9.10;7.55;;;;;;;;;;5083201;28;20032;-89
2021/01/06 00:54:34;;;;;;;9.02;7.47;;;;;;;;;;5083499;28;20028;-88
2021/01/06 00:57:03;;;;;;;;;;;;;;;;;;5101458;28;20031;-88
2021/01/06 00:59:35;;;;;;;9.20;7.57;;;;;;;;;;5084391;28;19912;-90
2021/01/06 01:02:01;;;;;;;12.82;8.23;;;;;;;;;;5083929;28;20043;-89
2021/01/06 01:05:03;;;;;;;9.00;7.43;;;;;;;;;;5101725;28;20028;-90
2021/01/06 01:07:32;;;;;;;8.48;7.32;;;;;;;;;;5087164;28;20038;-90
2021/01/06 01:10:04;;;;;;;8.07;7.28;;;;;;;;;;5105214;28;20027;-88
2021/01/06 01:12:41;;;;;;;8.05;7.22;;;;;;;;;;5125651;28;20028;-89
2021/01/06 01:15:18;;;;;;;;;;;;;;;;;;;;;
2021/01/06 01:17:45;;;;;;;7.88;7.10;;;;;;;;;;5128002;28;20126;-89
2021/01/06 01:20:11;;;;;;;11.02;7.90;;;;;;;;;;5121460;27;20043;-88
2021/01/06 01:23:00;;;;;;;7.65;6.90;;;;;;;;;;5077582;28;20041;-89
2021/01/06 01:25:31;;;;;;;8.30;7.13;;;;;;;;;;5061055;28;20016;-89
2021/01/06 01:28:15;;;;;;;8.40;7.50;;;;;;;;;;5060285;28;20017;-91
2021/01/06 01:30:59;;;;;;;11.05;8.10;;;;;;;;;;5076763;28;20029;-90
2021/01/06 01:33:43;;;;;;;8.77;7.63;;;;;;;;;;5059986;28;20013;-89
2021/01/06 01:36:09;;;;;;;8.57;7.78;;;;;;;;;;5059291;28;20027;-91
2021/01/06 01:41:29;;;;;;;7.75;7.05;;;;;;;;;;5076079;28;20067;-89
2021/01/06 01:44:17;;;;;;;;;;;;;;;;;;;;;
2021/01/06 01:46:50;;;;;;;9.65;7.38;;;;;;;;;;5076356;28;20035;-90
2021/01/06 01:49:39;;;;;;;8.63;7.75;;;;;;;;;;5058155;28;20029;-91
2021/01/06 01:52:25;;;;;;;8.88;7.35;;;;;;;;;;4978243;28;20055;-90
2021/01/06 01:54:51;;;;;;;8.00;7.20;;;;;;;;;;5115712;28;20069;-88
2021/01/06 01:57:21;;;;;;;7.75;6.95;;;;;;;;;;5117405;28;20032;-87
2021/01/06 01:59:57;;;;;;;10.00;7.63;;;;;;;;;;5108148;28;20064;-89
2021/01/06 02:02:35;;;;;;;8.40;7.13;;;;;;;;;;5106051;28;20347;-88
2021/01/06 02:05:30;;;;;;;7.90;7.10;;;;;;;;;;5104564;28;20039;-88
2021/01/06 02:08:08;;;;;;;7.72;6.88;;;;;;;;;;5116690;28;20051;-88
2021/01/06 02:11:04;;;;;;;9.07;7.00;;;;;;;;;;5104745;28;20119;-89
2021/01/06 02:13:50;;;;;;;8.55;7.38;;;;;;;;;;5050542;28;20033;-89
2021/01/06 02:16:31;;;;;;;10.48;7.78;;;;;;;;;;5103545;28;20042;-87
2021/01/06 02:18:57;;;;;;;10.70;7.97;;;;;;;;;;5104490;28;20125;-86
2021/01/06 02:21:25;;;;;;;8.77;7.88;;;;;;;;;;5122574;28;20023;-89
2021/01/06 02:24:02;;;;;;;9.02;7.47;;;;;;;;;;5101861;28;20034;-89
2021/01/06 02:26:35;;;;;;;8.73;7.93;;;;;;;;;;5119827;28;20031;-87
2021/01/06 02:29:02;;;;;;;9.30;7.32;;;;;;;;;;5100646;28;20315;-87
2021/01/06 02:31:28;;;;;;;8.75;7.75;;;;;;;;;;5100412;28;20055;-86
2021/01/06 02:33:58;;;;;;;9.30;8.27;;;;;;;;;;5100316;28;20027;-89
2021/01/06 02:36:24;;;;;;;;;;;;;;;;;;5100993;28;20027;-88
2021/01/06 02:38:50;;;;;;;8.07;7.15;;;;;;;;;;5100783;28;19964;-87
2021/01/06 02:41:22;;;;;;;10.00;7.70;;;;;;;;;;5101339;28;20038;-88
2021/01/06 02:43:49;;;;;;;9.00;7.85;;;;;;;;;;5101167;28;20031;-89
2021/01/06 02:46:17;;;;;;;9.43;8.20;;;;;;;;;;5101004;28;20084;-89
2021/01/06 02:48:45;;;;;;;10.90;9.35;;;;;;;;;;5101739;28;20059;-88
2021/01/06 02:51:20;;;;;;;10.30;8.73;;;;;;;;;;5100742;28;20426;-91
2021/01/06 02:54:00;;;;;;;9.68;8.68;;;;;;;;;;5101527;28;20292;-88
2021/01/06 02:56:27;;;;;;;11.02;8.52;;;;;;;;;;5100522;28;20032;-89
2021/01/06 02:58:55;;;;;;;10.15;8.48;;;;;;;;;;5119108;28;20065;-86
2021/01/06 03:01:27;;;;;;;10.25;8.63;;;;;;;;;;5100679;28;20065;-89
2021/01/06 03:03:54;;;;;;;8.93;7.93;;;;;;;;;;5101205;28;20051;-88
2021/01/06 03:06:37;;;;;;;10.73;9.27;;;;;;;;;;5100826;28;20061;-87
2021/01/06 03:09:05;;;;;;;10.07;8.75;;;;;;;;;;5104354;28;20036;-87
2021/01/06 03:11:31;;;;;;;9.73;8.75;;;;;;;;;;5122174;28;20067;-88
2021/01/06 03:13:58;;;;;;;9.77;8.18;;;;;;;;;;5104434;28;20069;-89
2021/01/06 03:16:24;;;;;;;10.07;8.95;;;;;;;;;;5104421;28;20354;-87
2021/01/06 03:18:51;;;;;;;11.30;8.98;;;;;;;;;;5103912;28;20042;-89
2021/01/06 03:21:17;;;;;;;10.13;9.10;;;;;;;;;;5121563;28;20030;-88
2021/01/06 03:23:54;;;;;;;12.05;9.40;;;;;;;;;;5120623;28;20028;-85
2021/01/06 03:26:22;;;;;;;11.43;10.20;;;;;;;;;;5122575;28;20096;-87
2021/01/06 03:28:49;;;;;;;10.55;9.40;;;;;;;;;;5122438;28;20036;-88
2021/01/06 03:31:22;;;;;;;10.50;9.40;;;;;;;;;;5104146;28;20334;-88
2021/01/06 03:33:52;;;;;;;11.88;10.05;;;;;;;;;;5102908;28;20055;-87
2021/01/06 03:36:20;;;;;;;12.05;9.88;;;;;;;;;;5100691;28;20040;-87
2021/01/06 03:38:54;;;;;;;13.65;11.38;;;;;;;;;;5102718;28;20134;-87
2021/01/06 03:41:23;;;;;;;11.38;9.82;;;;;;;;;;5103335;28;20067;-87
2021/01/06 03:43:52;;;;;;;11.48;9.52;;;;;;;;;;5103843;28;20051;-86
2021/01/06 03:46:21;;;;;;;10.77;9.73;;;;;;;;;;5103339;28;20108;-87
2021/01/06 03:48:58;;;;;;;11.27;9.52;;;;;;;;;;5104429;28;20172;-88
2021/01/06 03:51:44;;;;;;;11.48;10.30;;;;;;;;;;5121556;28;20031;-90
2021/01/06 03:54:28;;;;;;;14.50;10.75;;;;;;;;;;5121852;28;20033;-88
2021/01/06 03:56:55;;;;;;;11.82;10.55;;;;;;;;;;5103875;28;20482;-87
2021/01/06 03:59:25;;;;;;;11.48;10.07;;;;;;;;;;5104001;28;20346;-87
2021/01/06 04:01:51;;;;;;;;;;;;;;;;;;5103524;28;20135;-87
2021/01/06 04:04:35;;;;;;;10.63;9.52;;;;;;;;;;5103404;28;20326;-88
2021/01/06 04:07:02;;;;;;;11.57;10.38;;;;;;;;;;5103515;28;20037;-88
2021/01/06 04:09:32;;;;;;;11.63;9.95;;;;;;;;;;5103953;28;20054;-87
2021/01/06 04:12:05;;;;;;;10.60;9.50;;;;;;;;;;5102610;28;20032;-87
2021/01/06 04:14:32;;;;;;;11.63;10.40;;;;;;;;;;5103269;28;20027;-87
2021/01/06 04:17:00;;;;;;;11.90;10.13;;;;;;;;;;5103079;28;20126;-87
2021/01/06 04:19:26;;;;;;;12.05;10.75;;;;;;;;;;5102714;28;20092;-87
2021/01/06 04:21:52;;;;;;;10.55;9.43;;;;;;;;;;5103338;28;20063;-88
2021/01/06 04:24:18;;;;;;;10.38;9.25;;;;;;;;;;5121621;28;20035;-87
2021/01/06 04:26:45;;;;;;;10.57;9.48;;;;;;;;;;5121494;28;20027;-87
2021/01/06 04:29:11;;;;;;;13.13;10.50;;;;;;;;;;5102983;28;20034;-87
2021/01/06 04:31:37;;;;;;;12.35;9.25;;;;;;;;;;5102702;28;20509;-87
2021/01/06 04:34:03;;;;;;;11.65;10.40;;;;;;;;;;5102640;28;20032;-88
2021/01/06 04:36:31;;;;;;;11.07;9.68;;;;;;;;;;5103366;28;20049;-87
2021/01/06 04:38:58;;;;;;;11.35;9.80;;;;;;;;;;5121162;28;20039;-88
2021/01/06 04:41:40;;;;;;;11.38;10.23;;;;;;;;;;5103307;28;20118;-86
2021/01/06 04:44:11;;;;;;;11.88;10.07;;;;;;;;;;5103292;28;20027;-87
2021/01/06 04:46:52;;;;;;;10.18;8.98;;;;;;;;;;5102977;28;20028;-87
2021/01/06 04:49:43;;;;;;;11.70;10.50;;;;;;;;;;5102782;28;20043;-88
2021/01/06 04:52:12;;;;;;;11.60;9.75;;;;;;;;;;5103479;28;20031;-87
2021/01/06 04:54:57;;;;;;;11.20;10.10;;;;;;;;;;5103400;28;20035;-88
2021/01/06 04:57:37;;;;;;;11.68;10.57;;;;;;;;;;5120501;28;20034;-89
2021/01/06 05:00:39;;;;;;;10.68;9.65;;;;;;;;;;5103178;28;20042;-86
2021/01/06 05:03:22;;;;;;;11.32;9.68;;;;;;;;;;5041568;28;20071;-87
2021/01/06 05:06:03;;;;;;;11.52;10.02;;;;;;;;;;5097505;28;20335;-86
2021/01/06 05:08:29;;;;;;;11.60;10.02;;;;;;;;;;5102604;28;20038;-89
2021/01/06 05:11:18;;;;;;;10.15;9.15;;;;;;;;;;5102130;28;20032;-89
2021/01/06 05:13:45;;;;;;;12.40;10.38;;;;;;;;;;5101267;28;20191;-87
2021/01/06 05:16:14;;;;;;;11.82;10.25;;;;;;;;;;5101623;28;20070;-87
2021/01/06 05:18:40;;;;;;;10.90;9.80;;;;;;;;;;5088428;28;20036;-88
2021/01/06 05:21:22;;;;;;;;;;;;;;;;;;;;;
2021/01/06 05:23:52;;;;;;;12.15;10.32;;;;;;;;;;5098544;28;20047;-89
2021/01/06 05:26:18;;;;;;;11.10;9.98;;;;;;;;;;5099541;28;20028;-88
2021/01/06 05:28:47;;;;;;;10.38;9.32;;;;;;;;;;5082640;28;20056;-87
2021/01/06 05:31:29;;;;;;;11.73;9.10;;;;;;;;;;5081608;28;20035;-89
2021/01/06 05:34:06;;;;;;;12.07;10.80;;;;;;;;;;5071100;28;20031;-88
2021/01/06 05:36:50;;;;;;;13.20;10.93;;;;;;;;;;5065659;28;20032;-89
2021/01/06 05:39:20;;;;;;;12.63;10.05;;;;;;;;;;5061279;28;20040;-90
2021/01/06 05:41:54;;;;;;;13.02;10.07;;;;;;;;;;5059723;28;20076;-86
2021/01/06 05:44:26;;;;;;;10.75;9.75;;;;;;;;;;5061669;28;20032;-88
2021/01/06 05:46:54;;;;;;;11.50;10.40;;;;;;;;;;5068175;28;20035;-87
2021/01/06 05:49:31;;;;;;;10.25;9.25;;;;;;;;;;5080641;28;20051;-87
2021/01/06 05:52:02;;;;;;;11.98;10.77;;;;;;;;;;5080601;28;20016;-88
2021/01/06 05:54:39;;;;;;;11.15;9.95;;;;;;;;;;5096633;28;20043;-86
2021/01/06 05:57:15;;;;;;;10.52;9.52;;;;;;;;;;5098327;28;20035;-88
2021/01/06 05:59:48;;;;;;;11.88;10.65;;;;;;;;;;5075656;28;20056;-86
2021/01/06 06:02:38;;;;;;;11.68;10.27;;;;;;;;;;5074841;28;20028;-88
2021/01/06 06:05:23;;;;;;;12.15;10.90;;;;;;;;;;5075736;28;20028;-87
2021/01/06 06:08:11;;;;;;;11.10;9.90;;;;;;;;;;5077356;28;20073;-87
2021/01/06 06:10:55;;;;;;;11.63;10.45;;;;;;;;;;5072065;28;20028;-87
2021/01/06 06:13:40;;;;;;;11.05;9.95;;;;;;;;;;5077655;28;20038;-87
2021/01/06 06:16:06;;;;;;;12.32;10.18;;;;;;;;;;5093099;28;20024;-86
2021/01/06 06:18:44;;;;;;;11.45;9.90;;;;;;;;;;5088179;28;20040;-86
2021/01/06 06:21:17;;;;;;;14.30;10.20;;;;;;;;;;5096236;28;20028;-86
2021/01/06 06:23:52;;;;;;;12.35;10.80;;;;;;;;;;5090263;28;20034;-86
2021/01/06 06:26:37;;;;;;;13.50;10.82;;;;;;;;;;5081001;28;20059;-85
2021/01/06 06:29:03;;;;;;;13.23;10.45;;;;;;;;;;5095911;28;20031;-88
2021/01/06 06:31:34;;;;;;;12.63;11.13;;;;;;;;;;5073406;28;20031;-87
2021/01/06 06:34:01;;;;;;;11.95;10.68;;;;;;;;;;5064902;28;20028;-86
2021/01/06 06:36:29;;;;;;;12.50;10.52;;;;;;;;;;5074829;28;20106;-87
2021/01/06 06:38:56;;;;;;;12.75;10.45;;;;;;;;;;5075794;28;20032;-87
2021/01/06 06:41:22;;;;;;;11.60;10.40;;;;;;;;;;5077535;28;20028;-87
2021/01/06 06:43:52;;;;;;;13.00;11.15;;;;;;;;;;5072999;28;20035;-87
2021/01/06 06:46:21;;;;;;;12.55;9.93;;;;;;;;;;5079799;28;20135;-88
2021/01/06 06:48:56;;;;;;;12.05;10.38;;;;;;;;;;5078847;28;20119;-89
2021/01/06 06:51:41;;;;;;;12.30;11.00;;;;;;;;;;5073101;28;20036;-88
2021/01/06 06:54:14;;;;;;;11.18;9.65;;;;;;;;;;5061629;28;20028;-88
2021/01/06 06:56:50;;;;;;;11.68;9.43;;;;;;;;;;5078273;28;20039;-86
2021/01/06 06:59:49;;;;;;;11.98;10.82;;;;;;;;;;5077664;28;20049;-89
2021/01/06 07:02:24;;;;;;;13.02;10.32;;;;;;;;;;5074495;28;20040;-88
2021/01/06 07:05:22;;;;;;;12.23;10.95;;;;;;;;;;5077524;28;20067;-87
2021/01/06 07:07:53;;;;;;;12.35;10.98;;;;;;;;;;5024746;28;20118;-86
2021/01/06 07:10:28;;;;;;;11.88;10.52;;;;;;;;;;5074355;28;20334;-87
2021/01/06 07:13:04;;;;;;;13.32;9.88;;;;;;;;;;5078753;28;20347;-87
2021/01/06 07:15:44;;;;;;;13.07;10.07;;;;;;;;;;5077373;28;20055;-87
2021/01/06 07:18:34;;;;;;;11.48;9.52;;;;;;;;;;5062578;28;20367;-89
2021/01/06 07:21:06;;;;;;;11.25;10.13;;;;;;;;;;5077695;28;20036;-86
2021/01/06 07:23:38;;;;;;;10.20;9.20;;;;;;;;;;5075120;28;20031;-87
2021/01/06 07:26:09;;;;;;;11.35;10.23;;;;;;;;;;5077878;28;20039;-86
2021/01/06 07:28:36;;;;;;;11.90;10.00;;;;;;;;;;5076880;28;20024;-88
2021/01/06 07:31:28;;;;;;;12.23;10.30;;;;;;;;;;5073107;28;20032;-88
2021/01/06 07:33:59;;;;;;;10.63;9.50;;;;;;;;;;5070296;28;20135;-86
2021/01/06 07:36:31;;;;;;;10.43;9.32;;;;;;;;;;5066575;28;20029;-87
2021/01/06 07:39:00;;;;;;;11.38;10.23;;;;;;;;;;5067545;28;20196;-88
2021/01/06 07:41:45;;;;;;;10.73;9.63;;;;;;;;;;5072401;28;20045;-89
2021/01/06 07:44:27;;;;;;;12.52;10.40;;;;;;;;;;5072850;28;20040;-88
2021/01/06 07:46:56;;;;;;;12.80;9.73;;;;;;;;;;5085384;28;20382;-88
2021/01/06 07:49:50;;;;;;;11.35;10.00;;;;;;;;;;5072653;28;20028;-87
2021/01/06 07:52:26;;;;;;;10.23;9.23;;;;;;;;;;5050062;28;20074;-88
2021/01/06 07:54:54;;;;;;;11.50;10.07;;;;;;;;;;5094223;28;20027;-86
2021/01/06 07:57:42;;;;;;;10.40;9.35;;;;;;;;;;5074623;28;20043;-87
2021/01/06 08:00:12;;;;;;;9.98;8.98;;;;;;;;;;5074345;28;20057;-87
2021/01/06 08:02:59;;;;;;;11.00;9.13;;;;;;;;;;5085934;28;20037;-88
2021/01/06 08:05:37;;;;;;;13.68;10.30;;;;;;;;;;5066043;28;20055;-88
2021/01/06 08:08:13;;;;;;;;;;;;;;;;;;;;;
2021/01/06 08:11:06;;;;;;;16.60;11.30;;;;;;;;;;5097767;28;20026;-87
2021/01/06 08:13:39;;;;;;;12.07;9.55;;;;;;;;;;5074116;28;20176;-88
2021/01/06 08:16:23;;;;;;;12.43;10.30;;;;;;;;;;5098061;28;20032;-89
2021/01/06 08:19:04;;;;;;;9.93;8.93;;;;;;;;;;5095447;28;20031;-87
2021/01/06 08:21:42;;;;;;;11.07;9.57;;;;;;;;;;5094222;28;20416;-88
2021/01/06 08:24:33;;;;;;;12.60;10.05;;;;;;;;;;5053989;28;20355;-86
2021/01/06 08:27:04;;;;;;;12.65;10.43;;;;;;;;;;5092980;28;20104;-88
2021/01/06 08:29:35;;;;;;;11.60;9.85;;;;;;;;;;5071348;28;20032;-87
2021/01/06 08:32:11;;;;;;;12.02;9.90;;;;;;;;;;5093517;28;20028;-86
2021/01/06 08:34:58;;;;;;;10.95;9.75;;;;;;;;;;5075703;28;20073;-88
2021/01/06 08:37:41;;;;;;;;;;;;;;;;;;;;;
2021/01/06 08:40:24;;;;;;;12.77;9.90;;;;;;;;;;5095352;28;20034;-88
2021/01/06 08:42:52;;;;;;;11.93;10.15;;;;;;;;;;5077023;28;20024;-89
2021/01/06 08:45:27;;;;;;;12.80;10.32;;;;;;;;;;5077618;28;20034;-87
2021/01/06 08:48:15;;;;;;;11.35;9.43;;;;;;;;;;5025792;28;20026;-87
2021/01/06 08:53:37;;;;;;;11.38;9.90;;;;;;;;;;5029958;28;20037;-87
2021/01/06 08:56:35;;;;;;;12.25;10.27;;;;;;;;;;5016589;28;20033;-86
2021/01/06 08:59:33;;;;;;;11.60;10.40;;;;;;;;;;4972221;28;20160;-88
2021/01/06 09:02:00;;;;;;;10.90;9.65;;;;;;;;;;5018640;28;20118;-90
2021/01/06 09:04:48;;;;;;;11.98;10.80;;;;;;;;;;5028237;28;20057;-86
2021/01/06 09:07:43;;;;;;;12.45;10.50;;;;;;;;;;5032361;28;20079;-86
2021/01/06 09:10:15;;;;;;;12.45;9.40;;;;;;;;;;5012930;28;20208;-88
2021/01/06 09:13:17;;;;;;;11.02;9.80;;;;;;;;;;5032424;28;20037;-89
2021/01/06 09:16:00;;;;;;;10.98;9.70;;;;;;;;;;5032252;28;20112;-88
2021/01/06 09:18:31;;;;;;;11.90;10.63;;;;;;;;;;5050989;28;20439;-87
2021/01/06 09:24:27;;;;;;;12.05;10.05;;;;;;;;;;5093335;28;20399;-88
2021/01/06 09:27:18;;;;;;;12.98;10.63;;;;;;;;;;5097920;28;20126;-90
2021/01/06 09:29:48;;;;;;;10.98;9.88;;;;;;;;;;5088218;28;20028;-89
2021/01/06 09:32:19;;;;;;;11.45;9.73;;;;;;;;;;5095543;28;20032;-90
2021/01/06 09:34:48;;;;;;;13.07;9.88;;;;;;;;;;5077167;28;20028;-89
2021/01/06 09:37:25;;;;;;;13.70;10.17;;;;;;;;;;5091446;28;20027;-88
2021/01/06 09:39:53;;;;;;;11.43;10.00;;;;;;;;;;5086779;28;20293;-88
2021/01/06 09:42:20;;;;;;;13.32;10.43;;;;;;;;;;5074935;28;20101;-88
2021/01/06 09:44:46;;;;;;;10.85;9.82;;;;;;;;;;5090393;28;20027;-87
2021/01/06 09:47:21;;;;;;;9.52;8.60;;;;;;;;;;5075688;28;20040;-88
2021/01/06 09:50:01;;;;;;;10.57;9.45;;;;;;;;;;5074671;28;20028;-89
2021/01/06 09:52:39;;;;;;;11.55;9.48;;;;;;;;;;5092141;28;20038;-87
2021/01/06 09:55:16;;;;;;;10.98;9.70;;;;;;;;;;5092625;28;20024;-88
2021/01/06 09:57:42;;;;;;;12.55;9.68;;;;;;;;;;5087300;28;20039;-88
2021/01/06 10:00:28;;;;;;;10.45;9.38;;;;;;;;;;5077473;28;20043;-85
2021/01/06 10:02:55;;;;;;;11.45;9.55;;;;;;;;;;5076117;28;20032;-88
2021/01/06 10:05:22;;;;;;;9.40;8.40;;;;;;;;;;5078150;28;20032;-88
2021/01/06 10:07:56;;;;;;;10.25;9.02;;;;;;;;;;5098588;28;20499;-90
2021/01/06 10:10:32;;;;;;;12.48;9.07;;;;;;;;;;5075322;28;20039;-88
2021/01/06 10:13:24;;;;;;;10.20;9.15;;;;;;;;;;5077799;28;20024;-88
2021/01/06 10:16:09;;;;;;;11.60;8.65;;;;;;;;;;5062026;28;20046;-90
2021/01/06 10:18:42;;;;;;;11.45;8.63;;;;;;;;;;5071606;28;20040;-87
2021/01/06 10:21:27;;;;;;;9.43;8.43;;;;;;;;;;5077019;28;20024;-86
2021/01/06 10:24:02;;;;;;;9.40;8.40;;;;;;;;;;5074284;28;20023;-89
2021/01/06 10:26:50;;;;;;;10.85;8.52;;;;;;;;;;5075486;28;20047;-91
2021/01/06 10:29:21;;;;;;;12.13;8.02;;;;;;;;;;5091612;28;20032;-88
2021/01/06 10:31:59;;;;;;;9.20;8.30;;;;;;;;;;5074052;28;20045;-88
2021/01/06 10:34:31;;;;;;;10.35;8.52;;;;;;;;;;5076217;28;20031;-89
2021/01/06 10:37:12;;;;;;;8.75;7.85;;;;;;;;;;5076973;28;20066;-90
2021/01/06 10:39:47;;;;;;;9.43;7.70;;;;;;;;;;5073663;28;20055;-89
2021/01/06 10:42:22;;;;;;;9.75;8.65;;;;;;;;;;5078383;28;20031;-89
2021/01/06 10:44:54;;;;;;;10.15;9.07;;;;;;;;;;5074511;28;20043;-87
2021/01/06 10:47:23;;;;;;;11.18;9.10;;;;;;;;;;5092669;28;20028;-85
2021/01/06 10:49:56;;;;;;;11.40;9.30;;;;;;;;;;5073266;28;20031;-89
2021/01/06 10:52:23;;;;;;;9.20;8.30;;;;;;;;;;5075553;28;20036;-88
2021/01/06 10:54:49;;;;;;;10.15;8.65;;;;;;;;;;5076192;28;20020;-90
2021/01/06 10:57:16;;;;;;;15.07;9.52;;;;;;;;;;5075636;28;20020;-88
2021/01/06 11:00:01;;;;;;;12.95;8.90;;;;;;;;;;5076112;28;20043;-88
2021/01/06 11:02:37;;;;;;;10.30;9.23;;;;;;;;;;5077818;28;20042;-89
2021/01/06 11:05:10;;;;;;;11.45;9.85;;;;;;;;;;5090609;28;20028;-90
2021/01/06 11:07:39;;;;;;;10.13;8.55;;;;;;;;;;5075155;28;20031;-90
2021/01/06 11:10:05;;;;;;;;;;;;;;;;;;5075284;28;20081;-88
2021/01/06 11:13:03;;;;;;;8.98;7.68;;;;;;;;;;5075276;28;20263;-89
2021/01/06 11:15:55;;;;;;;9.65;8.60;;;;;;;;;;5035891;28;20059;-89
2021/01/06 11:18:27;;;;;;;10.13;8.45;;;;;;;;;;5073886;28;20440;-89
2021/01/06 11:21:12;;;;;;;11.75;10.05;;;;;;;;;;5072917;28;20062;-90
2021/01/06 11:23:58;;;;;;;12.40;8.50;;;;;;;;;;5067256;28;20055;-89
2021/01/06 11:26:30;;;;;;;10.68;9.57;;;;;;;;;;5072965;28;20020;-89
2021/01/06 11:29:14;;;;;;;10.95;9.27;;;;;;;;;;5073697;28;20047;-89
2021/01/06 11:31:51;;;;;;;9.27;8.18;;;;;;;;;;5079588;28;20050;-88
2021/01/06 11:34:20;;;;;;;10.90;8.45;;;;;;;;;;5082531;28;20075;-89
2021/01/06 11:36:51;;;;;;;14.20;10.57;;;;;;;;;;5076989;28;20435;-89
2021/01/06 11:39:47;;;;;;;8.05;7.32;;;;;;;;;;5078373;28;20043;-88
2021/01/06 11:42:18;;;;;;;9.77;8.35;;;;;;;;;;5092792;28;20337;-88
2021/01/06 11:44:56;;;;;;;9.88;8.88;;;;;;;;;;5079027;28;20110;-89
2021/01/06 11:47:46;;;;;;;11.13;8.70;;;;;;;;;;5077008;28;20086;-90
2021/01/06 11:50:32;;;;;;;11.80;9.27;;;;;;;;;;5064196;28;20135;-88
2021/01/06 11:53:25;;;;;;;11.07;8.52;;;;;;;;;;5081008;28;20414;-89
2021/01/06 11:55:51;;;;;;;11.10;9.13;;;;;;;;;;5084966;28;20091;-90
2021/01/06 11:58:28;;;;;;;10.63;8.52;;;;;;;;;;5096992;28;20035;-90
2021/01/06 12:01:35;;;;;;;10.55;8.40;;;;;;;;;;5098414;28;20054;-88
2021/01/06 12:04:16;;;;;;;9.82;8.82;;;;;;;;;;5095680;28;20028;-90
2021/01/06 12:06:53;;;;;;;10.05;8.10;;;;;;;;;;5073034;28;20070;-89
2021/01/06 12:09:42;;;;;;;10.00;8.70;;;;;;;;;;5081137;28;20043;-88
2021/01/06 12:12:38;;;;;;;9.55;8.15;;;;;;;;;;5071699;28;20089;-90
2021/01/06 12:15:23;;;;;;;11.02;8.07;;;;;;;;;;5078033;28;20048;-87
2021/01/06 12:17:59;;;;;;;10.32;8.35;;;;;;;;;;5078188;28;20044;-88
2021/01/06 12:20:28;;;;;;;9.15;8.15;;;;;;;;;;5075359;28;20040;-88
2021/01/06 12:23:26;;;;;;;11.60;7.75;;;;;;;;;;5099175;28;20031;-89
2021/01/06 12:25:55;;;;;;;10.90;7.93;;;;;;;;;;5078513;28;20032;-89
2021/01/06 12:28:27;;;;;;;8.82;7.90;;;;;;;;;;5073172;28;20036;-88
2021/01/06 12:31:13;;;;;;;9.25;8.35;;;;;;;;;;5079103;28;20545;-87
2021/01/06 12:33:46;;;;;;;10.00;7.45;;;;;;;;;;5077222;28;20120;-87
2021/01/06 12:36:18;;;;;;;11.40;8.85;;;;;;;;;;5067929;28;20024;-87
2021/01/06 12:38:46;;;;;;;10.23;7.57;;;;;;;;;;5078260;28;20055;-87
2021/01/06 12:41:36;;;;;;;8.75;7.40;;;;;;;;;;5075479;28;20032;-88
2021/01/06 12:44:12;;;;;;;8.70;7.40;;;;;;;;;;5058627;28;20173;-89
2021/01/06 12:50:15;;;;;;;11.25;7.60;;;;;;;;;;5004267;28;20018;-89
2021/01/06 12:53:10;;;;;;;8.10;7.30;;;;;;;;;;5005931;28;20061;-88
2021/01/06 12:55:52;;;;;;;7.50;6.80;;;;;;;;;;5001440;28;20084;-86
2021/01/06 12:58:43;;;;;;;8.20;7.40;;;;;;;;;;5002233;28;20056;-89
2021/01/06 13:01:33;;;;;;;7.75;6.95;;;;;;;;;;5021634;28;20106;-90
2021/01/06 13:04:19;;;;;;;;;;;;;;;;;;;;;
2021/01/06 13:07:05;;;;;;;9.57;8.02;;;;;;;;;;5100110;28;20126;-88
2021/01/06 13:09:31;;;;;;;8.20;7.40;;;;;;;;;;5076707;28;20067;-88
2021/01/06 13:12:34;;;;;;;8.82;7.00;;;;;;;;;;5079217;28;20030;-90
2021/01/06 13:15:14;;;;;;;9.85;7.50;;;;;;;;;;5096482;28;20083;-91
2021/01/06 13:18:02;;;;;;;7.78;6.97;;;;;;;;;;5097678;28;20039;-88
2021/01/06 13:20:46;;;;;;;8.27;6.70;;;;;;;;;;5030183;28;20050;-88
2021/01/06 13:23:16;;;;;;;8.07;7.25;;;;;;;;;;5031525;28;20041;-86
2021/01/06 13:25:46;;;;;;;8.43;6.80;;;;;;;;;;5019468;28;20029;-90
2021/01/06 13:28:39;;;;;;;8.63;7.75;;;;;;;;;;5022706;28;20033;-88
2021/01/06 13:31:23;;;;;;;7.72;6.65;;;;;;;;;;5020006;28;20076;-89
2021/01/06 13:34:24;;;;;;;;;;;;;;;;;;;;;
2021/01/06 13:37:11;;;;;;;9.13;7.43;;;;;;;;;;5037833;28;20032;-89
2021/01/06 13:40:06;;;;;;;8.07;7.28;;;;;;;;;;5038018;28;20069;-88
2021/01/06 13:42:52;;;;;;;10.00;6.95;;;;;;;;;;5021485;28;20132;-90
2021/01/06 13:45:24;;;;;;;11.25;7.00;;;;;;;;;;5021003;28;20041;-89
2021/01/06 13:47:54;;;;;;;7.28;6.47;;;;;;;;;;5016758;28;20395;-87
2021/01/06 13:53:43;;;;;;;8.95;6.60;;;;;;;;;;5037711;28;20037;-89
2021/01/06 13:56:45;;;;;;;8.32;6.68;;;;;;;;;;5020185;28;20081;-89
2021/01/06 13:59:31;;;;;;;10.60;6.90;;;;;;;;;;5080799;28;20447;-90
2021/01/06 14:02:09;;;;;;;9.60;6.47;;;;;;;;;;5068913;28;20028;-91
2021/01/06 14:04:53;;;;;;;7.07;6.37;;;;;;;;;;5080761;28;20403;-89
2021/01/06 14:07:52;;;;;;;7.22;6.53;;;;;;;;;;5072307;28;20032;-88
2021/01/06 14:14:23;;;;;;;8.35;7.22;;;;;;;;;;5028468;28;20032;-90
2021/01/06 14:17:03;;;;;;;7.90;6.20;;;;;;;;;;5098749;28;20055;-90
2021/01/06 14:19:41;;;;;;;9.02;6.85;;;;;;;;;;5078826;28;20143;-92
2021/01/06 14:22:20;;;;;;;8.02;6.75;;;;;;;;;;5082324;28;20077;-90
2021/01/06 14:24:54;;;;;;;7.93;7.13;;;;;;;;;;5096197;28;20028;-90
2021/01/06 14:28:10;;;;;;;8.85;6.88;;;;;;;;;;5077697;28;20036;-89
2021/01/06 14:30:41;;;;;;;7.25;6.47;;;;;;;;;;5019394;28;20069;-89
2021/01/06 14:33:19;;;;;;;7.47;6.13;;;;;;;;;;5016443;28;20046;-89
2021/01/06 14:35:55;;;;;;;6.80;5.50;;;;;;;;;;5013768;28;20064;-89
2021/01/06 14:38:46;;;;;;;6.68;5.97;;;;;;;;;;5009589;28;20037;-91
2021/01/06 14:41:33;;;;;;;8.88;6.43;;;;;;;;;;5035575;28;20460;-90
2021/01/06 14:44:28;;;;;;;;;;;;;;;;;;;;;
2021/01/06 14:47:13;;;;;;;8.25;6.32;;;;;;;;;;5066123;28;20105;-90
2021/01/06 14:50:09;;;;;;;;;;;;;;;;;;;;;
2021/01/06 14:52:57;;;;;;;7.47;6.40;;;;;;;;;;5075654;28;20045;-89
2021/01/06 14:55:28;;;;;;;6.80;6.18;;;;;;;;;;5075824;28;20016;-89
2021/01/06 14:57:57;;;;;;;7.63;6.15;;;;;;;;;;5079438;28;20106;-88
2021/01/06 15:00:54;;;;;;;8.43;6.97;;;;;;;;;;5101153;28;20102;-91
2021/01/06 15:03:41;;;;;;;8.15;6.20;;;;;;;;;;5084726;28;20050;-89
2021/01/06 15:06:36;;;;;;;8.48;6.50;;;;;;;;;;5091633;28;20035;-90
2021/01/06 15:09:37;;;;;;;8.82;6.25;;;;;;;;;;5029683;28;20135;-90
2021/01/06 15:12:15;;;;;;;7.97;6.88;;;;;;;;;;5000639;28;20533;-91
2021/01/06 15:14:56;;;;;;;8.00;6.80;;;;;;;;;;5091001;28;20040;-90
2021/01/06 15:20:38;;;;;;;11.70;7.65;;;;;;;;;;5135286;27;20059;-90
2021/01/06 15:23:26;;;;;;;8.65;6.68;;;;;;;;;;5115473;28;20039;-90
2021/01/06 15:29:24;;;;;;;7.82;7.03;;;;;;;;;;5112032;28;20028;-89
2021/01/06 15:32:10;;;;;;;7.53;6.15;;;;;;;;;;5082284;28;20024;-90
2021/01/06 15:34:37;;;;;;;7.60;6.78;;;;;;;;;;5093910;28;20116;-90
2021/01/06 15:40:27;;;;;;;12.73;6.90;;;;;;;;;;5091465;28;20114;-91
2021/01/06 15:43:11;;;;;;;10.50;8.00;;;;;;;;;;5090725;28;20112;-88
2021/01/06 15:45:46;;;;;;;10.48;7.18;;;;;;;;;;5084377;28;20040;-89
2021/01/06 15:48:28;;;;;;;;;;;;;;;;;;;;;
2021/01/06 15:51:05;;;;;;;7.88;7.05;;;;;;;;;;5085798;28;20114;-90
2021/01/06 15:53:52;;;;;;;;;;;;;;;;;;;;;
2021/01/06 15:59:37;;;;;;;12.55;8.75;;;;;;;;;;5091465;28;20064;-90
2021/01/06 16:05:33;;;;;;;7.30;6.60;;;;;;;;;;5099301;28;20070;-90
2021/01/06 16:08:28;;;;;;;12.85;6.45;;;;;;;;;;5080033;28;20028;-91
2021/01/06 16:11:12;;;;;;;7.82;6.85;;;;;;;;;;5092105;28;20036;-91
2021/01/06 16:13:55;;;;;;;10.18;6.50;;;;;;;;;;5079373;28;20032;-90
2021/01/06 16:16:27;;;;;;;12.30;7.65;;;;;;;;;;5083957;28;20119;-90
2021/01/06 16:19:29;;;;;;;9.27;6.80;;;;;;;;;;5086888;28;20040;-89